Previous Day
Next Day
Current Day
SHEF ID: FVSO2 FAIRVIEW
STATION TYPE: Mesonet
PRECIP AIR-TEMP WIND-DIRWIND-SPEED REL-HUMID SOLAR-RAD
in F deg mph % W/m2
Raw-Meson Raw-Meson Raw-Meson Raw-Meson Raw-Meson Raw-Meson
(US/Central)
05/22 00:00 0.00 69.94 137.00 11.63 92.75 0.00
05/22 01:00 0.00 70.07 147.50 9.45 90.25 0.00
05/22 02:00 0.00 69.75 145.75 9.73 91.50 0.00
05/22 03:00 0.00 68.94 143.75 7.04 93.75 0.00
05/22 04:00 0.00 68.68 136.00 5.93 95.00 0.00
05/22 05:00 0.00 68.41 134.25 8.05 95.75 0.00
05/22 06:00 0.00 68.09 145.75 6.54 96.75 0.00
05/22 07:00 0.00 67.14 142.25 6.20 97.00 17.00
05/22 08:00 0.00 68.50 140.00 7.21 95.25 125.75
05/22 09:00 0.00 70.30 141.00 7.72 91.50 190.25
05/22 10:00 0.00 73.36 139.50 8.28 84.75 384.75
05/22 11:00 0.00 73.00 133.50 8.89 87.50 307.50
05/22 12:00 0.00 74.25 136.75 9.00 84.00 541.00
05/22 13:00 0.00 75.11 133.75 10.85 83.50 359.50
05/22 14:00 0.00 71.69 150.50 8.45 87.75 254.25
05/22 15:00 0.01 74.44 143.75 8.22 82.25 246.75
05/22 16:00 0.00 75.29 164.75 5.70 84.25 466.25
05/22 17:00 0.00 78.26 141.75 13.98 75.25 483.00
05/22 18:00 0.00 78.89 136.00 14.26 72.25 542.00
05/22 19:00 0.00 77.41 129.75 12.19 74.75 291.25
05/22 20:00 0.00 75.34 133.25 11.29 80.25 110.25
05/22 21:00 0.00 72.77 127.75 10.68 88.50 15.75
05/22 22:00 0.00 70.84 145.50 11.63 88.75 0.00
05/22 23:00 ---- 69.89 150.75 12.58 91.50 0.00